createdAt,value
2023-01-13T00:02:08.386Z,4.21
2023-01-13T00:05:57.616Z,4.19
2023-01-13T00:09:46.680Z,4.18
2023-01-13T00:13:36.157Z,4.19
2023-01-13T00:17:25.224Z,4.23
2023-01-13T00:21:14.566Z,4.25
2023-01-13T00:25:03.640Z,4.21
2023-01-13T00:28:52.759Z,4.15
2023-01-13T00:32:41.848Z,4.11
2023-01-13T00:36:36.579Z,4.09
2023-01-13T00:40:25.701Z,4.11
2023-01-13T00:44:14.735Z,4.08
2023-01-13T00:48:03.798Z,4.07
2023-01-13T00:51:58.917Z,4.04
2023-01-13T00:55:48.088Z,4.04
2023-01-13T00:59:37.234Z,4.02
2023-01-13T01:03:29.326Z,3.99
2023-01-13T01:07:18.461Z,3.94
2023-01-13T01:11:07.570Z,3.89
2023-01-13T01:14:56.642Z,3.88
2023-01-13T01:18:45.681Z,3.90
2023-01-13T01:22:34.913Z,3.94
2023-01-13T01:26:23.989Z,3.99
2023-01-13T01:30:13.104Z,4.05
2023-01-13T01:34:02.153Z,4.12
2023-01-13T01:37:51.196Z,4.15
2023-01-13T01:41:40.310Z,4.18
2023-01-13T01:45:50.742Z,4.14
2023-01-13T01:49:39.894Z,4.15
2023-01-13T01:53:29.100Z,4.17
2023-01-13T01:57:18.172Z,4.19
2023-01-13T02:01:07.708Z,4.23
2023-01-13T02:04:56.906Z,4.23
2023-01-13T02:08:45.988Z,4.21
2023-01-13T02:12:50.294Z,4.18
2023-01-13T02:16:48.336Z,4.15
2023-01-13T02:20:35.793Z,4.14
2023-01-13T02:24:23.658Z,4.14
2023-01-13T02:28:24.591Z,4.17
2023-01-13T02:32:13.746Z,4.20
2023-01-13T02:36:08.563Z,4.23
2023-01-13T02:40:03.576Z,4.20
2023-01-13T02:43:57.245Z,4.17
2023-01-13T02:47:46.330Z,4.18
2023-01-13T02:51:50.395Z,4.19
2023-01-13T02:55:42.268Z,4.20
2023-01-13T02:59:31.337Z,4.23
2023-01-13T03:03:20.438Z,4.24
2023-01-13T03:07:12.582Z,4.22
2023-01-13T03:11:20.018Z,4.21
2023-01-13T03:15:11.606Z,4.20
2023-01-13T03:19:12.974Z,4.20
2023-01-13T03:23:03.499Z,4.21
2023-01-13T03:27:14.082Z,4.21
2023-01-13T03:31:27.678Z,4.19
2023-01-13T03:35:28.716Z,4.16
2023-01-13T03:39:22.963Z,4.16
2023-01-13T03:43:20.983Z,4.17
2023-01-13T03:47:12.682Z,4.21
2023-01-13T03:51:11.129Z,4.21
2023-01-13T03:55:00.185Z,4.22
2023-01-13T03:58:55.311Z,4.20
2023-01-13T04:02:53.736Z,4.13
2023-01-13T04:06:51.743Z,4.09
2023-01-13T04:10:46.887Z,4.11
2023-01-13T04:14:35.909Z,4.15
2023-01-13T04:18:24.991Z,4.16
2023-01-13T04:22:14.071Z,4.16
2023-01-13T04:26:03.197Z,4.11
2023-01-13T04:29:52.381Z,4.07
2023-01-13T04:33:41.481Z,4.02
2023-01-13T04:37:30.786Z,4.02
2023-01-13T04:41:12.538Z,4.09
2023-01-13T04:44:55.961Z,4.10
2023-01-13T04:48:45.163Z,4.10
2023-01-13T04:52:34.221Z,4.08
2023-01-13T04:56:23.288Z,4.08
2023-01-13T05:00:12.529Z,4.11
2023-01-13T05:04:01.782Z,4.14
2023-01-13T05:07:50.889Z,4.15
2023-01-13T05:11:41.133Z,4.13
2023-01-13T05:15:28.772Z,4.13
2023-01-13T05:19:17.818Z,4.17
2023-01-13T05:23:05.513Z,4.21
2023-01-13T05:26:54.579Z,4.20
2023-01-13T05:30:43.809Z,4.17
2023-01-13T05:34:32.907Z,4.13
2023-01-13T05:38:22.024Z,4.09
2023-01-13T05:42:09.873Z,4.09
2023-01-13T05:45:58.998Z,4.08
2023-01-13T05:49:48.224Z,4.10
2023-01-13T05:53:37.361Z,4.11
2023-01-13T05:57:26.487Z,4.11
2023-01-13T06:01:15.850Z,4.08
2023-01-13T06:05:05.063Z,4.08
2023-01-13T06:08:54.124Z,4.08
2023-01-13T06:12:43.164Z,4.09
2023-01-13T06:16:32.330Z,4.12
2023-01-13T06:20:21.417Z,4.14
2023-01-13T06:24:10.491Z,4.10
2023-01-13T06:32:06.203Z,3.95
2023-01-13T06:35:55.283Z,3.97
2023-01-13T06:39:44.357Z,3.97
2023-01-13T06:43:36.335Z,3.98
2023-01-13T06:47:25.882Z,4.03
2023-01-13T06:51:14.956Z,4.07
2023-01-13T06:55:04.085Z,4.09
2023-01-13T06:58:53.113Z,4.11
2023-01-13T07:02:42.312Z,4.14
2023-01-13T07:06:31.427Z,4.18
2023-01-13T07:10:20.499Z,4.22
2023-01-13T07:14:08.083Z,4.25
2023-01-13T07:17:57.212Z,4.25
2023-01-13T07:21:46.323Z,4.25
2023-01-13T07:25:35.404Z,4.26
2023-01-13T07:29:24.425Z,4.28
2023-01-13T07:33:13.583Z,4.34
2023-01-13T07:37:05.666Z,4.38
2023-01-13T07:40:54.841Z,4.40
2023-01-13T07:44:46.548Z,4.36
2023-01-13T07:48:35.692Z,4.33
2023-01-13T07:52:24.821Z,4.36
2023-01-13T07:56:11.230Z,4.39
2023-01-13T08:00:00.519Z,4.41
2023-01-13T08:03:49.687Z,4.41
2023-01-13T08:07:38.729Z,4.36
2023-01-13T08:11:27.835Z,4.39
2023-01-13T08:15:16.942Z,4.47
2023-01-13T08:19:06.017Z,4.51
2023-01-13T08:22:55.087Z,4.55
2023-01-13T08:26:44.186Z,4.60
2023-01-13T08:30:33.328Z,4.61
2023-01-13T08:34:22.522Z,4.63
2023-01-13T08:38:11.597Z,4.68
2023-01-13T08:42:16.155Z,4.80
2023-01-13T08:46:05.597Z,4.85
2023-01-13T08:49:54.808Z,4.87
2023-01-13T08:53:43.911Z,4.87
2023-01-13T08:57:33.366Z,4.86
2023-01-13T09:01:22.622Z,4.89
2023-01-13T09:05:17.962Z,4.89
2023-01-13T09:09:07.063Z,4.89
2023-01-13T09:12:54.644Z,4.90
2023-01-13T09:16:43.712Z,4.92
2023-01-13T09:20:32.752Z,4.96
2023-01-13T09:24:21.871Z,4.97
2023-01-13T09:28:10.972Z,4.94
2023-01-13T09:32:00.084Z,4.97
2023-01-13T09:35:49.435Z,5.02
2023-01-13T09:39:38.753Z,5.06
2023-01-13T09:43:32.097Z,5.09
2023-01-13T09:47:18.845Z,5.15
2023-01-13T09:51:06.611Z,5.17
2023-01-13T09:55:01.497Z,5.14
2023-01-13T09:58:50.614Z,5.18
2023-01-13T10:02:42.288Z,5.25
2023-01-13T10:06:37.439Z,5.32
2023-01-13T10:10:25.270Z,5.30
2023-01-13T10:14:17.132Z,5.29
2023-01-13T10:18:15.083Z,5.31
2023-01-13T10:22:13.203Z,5.31
2023-01-13T10:26:10.360Z,5.33
2023-01-13T10:30:05.411Z,5.41
2023-01-13T10:34:00.245Z,5.45
2023-01-13T10:37:59.871Z,5.48
2023-01-13T10:41:55.222Z,5.47
2023-01-13T10:45:47.169Z,5.46
2023-01-13T10:49:36.368Z,5.49
2023-01-13T10:53:37.732Z,5.54
2023-01-13T10:57:27.101Z,5.56
2023-01-13T11:01:31.490Z,5.51
2023-01-13T11:05:23.544Z,5.50
2023-01-13T11:09:24.719Z,5.51
2023-01-13T11:13:32.166Z,5.53
2023-01-13T11:17:21.308Z,5.57
2023-01-13T11:21:19.578Z,5.58
2023-01-13T11:25:26.918Z,5.60
2023-01-13T11:29:21.946Z,5.63
2023-01-13T11:33:11.052Z,5.69
2023-01-13T11:37:05.883Z,5.71
2023-01-13T11:41:16.260Z,5.73
2023-01-13T11:45:05.359Z,5.74
2023-01-13T11:48:53.889Z,5.80
2023-01-13T11:52:52.119Z,5.88
2023-01-13T11:56:46.968Z,6.01
2023-01-13T12:00:38.782Z,6.12
2023-01-13T12:04:33.857Z,6.20
2023-01-13T12:08:41.325Z,6.29
2023-01-13T12:12:42.631Z,6.42
2023-01-13T12:16:31.769Z,6.55
2023-01-13T12:20:24.096Z,6.60
2023-01-13T12:24:34.249Z,6.67
2023-01-13T12:28:37.343Z,6.69
2023-01-13T12:32:29.213Z,6.77
2023-01-13T12:36:18.322Z,6.83
2023-01-13T12:40:22.688Z,6.91
2023-01-13T12:44:39.027Z,7.03
2023-01-13T12:48:34.205Z,7.15
2023-01-13T12:52:35.094Z,7.65
2023-01-13T12:56:26.970Z,8.01
2023-01-13T13:00:19.421Z,8.31
2023-01-13T13:04:08.570Z,8.67
2023-01-13T13:08:00.484Z,8.62
2023-01-13T13:11:57.143Z,8.72
2023-01-13T13:16:04.493Z,9.08
2023-01-13T13:19:59.387Z,9.52
2023-01-13T13:23:48.537Z,9.95
2023-01-13T13:27:37.430Z,10.44
2023-01-13T13:31:31.610Z,10.71
2023-01-13T13:35:31.644Z,10.95
2023-01-13T13:39:34.621Z,11.08
2023-01-13T13:43:21.964Z,11.11
2023-01-13T13:47:24.899Z,11.16
2023-01-13T13:50:57.693Z,11.15
2023-01-13T13:54:45.776Z,11.08
2023-01-13T13:58:31.393Z,10.92
2023-01-13T14:02:14.988Z,10.71
2023-01-13T14:06:08.917Z,10.46
2023-01-13T14:09:58.001Z,10.28
2023-01-13T14:13:35.967Z,10.08
2023-01-13T14:17:18.205Z,9.89
2023-01-13T14:20:57.787Z,9.45
2023-01-13T14:24:58.996Z,9.15
2023-01-13T14:28:50.654Z,8.87
2023-01-13T14:32:39.733Z,8.71
2023-01-13T14:36:43.798Z,8.40
2023-01-13T14:40:32.937Z,8.01
2023-01-13T14:44:24.694Z,7.61
2023-01-13T14:48:22.993Z,7.24
2023-01-13T14:52:12.129Z,6.87
2023-01-13T14:56:12.594Z,6.59
2023-01-13T15:00:13.812Z,6.35
2023-01-13T15:04:05.685Z,6.13
2023-01-13T15:07:54.800Z,5.91
2023-01-13T15:11:50.177Z,5.71
2023-01-13T15:15:39.338Z,5.52
2023-01-13T15:19:28.542Z,5.38
2023-01-13T15:23:20.654Z,5.27
2023-01-13T15:27:21.129Z,5.12
2023-01-13T15:31:16.285Z,4.98
2023-01-13T15:35:05.355Z,4.85
2023-01-13T15:38:57.072Z,4.73
2023-01-13T15:42:44.741Z,4.67
2023-01-13T15:46:32.509Z,4.64
2023-01-13T15:50:21.743Z,4.61
2023-01-13T15:54:10.857Z,4.57
2023-01-13T15:58:02.704Z,4.50
2023-01-13T16:01:51.811Z,4.41
2023-01-13T16:05:40.921Z,4.37
2023-01-13T16:09:30.014Z,4.35
2023-01-13T16:13:19.116Z,4.32
2023-01-13T16:17:11.003Z,4.26
2023-01-13T16:21:00.226Z,4.20
2023-01-13T16:24:49.282Z,4.09
2023-01-13T16:28:38.414Z,4.09
2023-01-13T16:32:27.573Z,4.07
2023-01-13T16:36:16.636Z,4.06
2023-01-13T16:40:05.727Z,4.05
2023-01-13T16:43:54.894Z,4.01
2023-01-13T16:47:43.979Z,3.96
2023-01-13T16:51:36.225Z,3.91
2023-01-13T16:55:25.311Z,3.89
2023-01-13T16:59:17.404Z,3.89
2023-01-13T17:03:06.483Z,3.87
2023-01-13T17:06:58.071Z,3.84
2023-01-13T17:10:47.246Z,3.79
2023-01-13T17:14:36.409Z,3.76
2023-01-13T17:18:25.551Z,3.71
2023-01-13T17:22:14.920Z,3.65
2023-01-13T17:26:03.989Z,3.56
2023-01-13T17:29:56.250Z,3.46
2023-01-13T17:33:45.335Z,3.35
2023-01-13T17:37:34.430Z,3.29
2023-01-13T17:41:23.611Z,3.20
2023-01-13T17:45:15.522Z,3.09
2023-01-13T17:49:04.640Z,2.97
2023-01-13T17:52:53.848Z,2.83
2023-01-13T17:56:42.957Z,2.72
2023-01-13T18:00:32.022Z,2.63
2023-01-13T18:04:13.694Z,2.53
2023-01-13T18:08:02.813Z,2.41
2023-01-13T18:11:51.922Z,2.29
2023-01-13T18:15:41.048Z,2.18
2023-01-13T18:19:28.593Z,2.07
2023-01-13T18:23:16.329Z,2.01
2023-01-13T18:27:09.604Z,1.95
2023-01-13T18:30:58.752Z,1.90
2023-01-13T18:34:48.001Z,1.82
2023-01-13T18:38:41.435Z,1.74
2023-01-13T18:42:29.221Z,1.62
2023-01-13T18:46:18.437Z,1.56
2023-01-13T18:50:07.587Z,1.53
2023-01-13T18:53:56.777Z,1.49
2023-01-13T18:57:45.895Z,1.43
2023-01-13T19:01:43.992Z,1.36
2023-01-13T19:05:33.431Z,1.29
2023-01-13T19:09:22.555Z,1.24
2023-01-13T19:13:11.681Z,1.18
2023-01-13T19:17:00.755Z,1.09
2023-01-13T19:20:50.135Z,0.99
2023-01-13T19:24:39.386Z,0.90
2023-01-13T19:28:28.591Z,0.84
2023-01-13T19:32:17.686Z,0.73
2023-01-13T19:36:07.094Z,0.67
2023-01-13T19:39:56.207Z,0.61
2023-01-13T19:43:44.006Z,0.53
2023-01-13T19:47:33.128Z,0.47
2023-01-13T19:51:22.257Z,0.44
2023-01-13T19:55:11.491Z,0.43
2023-01-13T19:59:00.596Z,0.40
2023-01-13T20:02:49.844Z,0.34
2023-01-13T20:06:39.092Z,0.29
2023-01-13T20:10:28.269Z,0.22
2023-01-13T20:14:17.414Z,0.18
2023-01-13T20:18:06.474Z,0.14
2023-01-13T20:21:55.594Z,0.10
2023-01-13T20:25:44.887Z,0.03
2023-01-13T20:29:34.107Z,-0.05
2023-01-13T20:33:23.198Z,-0.11
2023-01-13T20:37:12.331Z,-0.15
2023-01-13T20:41:01.442Z,-0.19
2023-01-13T20:44:50.519Z,-0.22
2023-01-13T20:48:39.621Z,-0.23
2023-01-13T20:52:31.778Z,-0.25
2023-01-13T20:56:20.994Z,-0.28
2023-01-13T21:00:10.126Z,-0.29
2023-01-13T21:03:59.326Z,-0.33
2023-01-13T21:07:48.463Z,-0.38
2023-01-13T21:11:41.791Z,-0.41
2023-01-13T21:15:39.860Z,-0.38
2023-01-13T21:19:28.914Z,-0.37
2023-01-13T21:23:17.994Z,-0.36
2023-01-13T21:27:07.168Z,-0.35
2023-01-13T21:30:56.268Z,-0.35
2023-01-13T21:34:45.305Z,-0.36
2023-01-13T21:38:34.479Z,-0.38
2023-01-13T21:42:22.199Z,-0.38
2023-01-13T21:46:10.162Z,-0.36
2023-01-13T21:49:59.272Z,-0.35
2023-01-13T21:53:48.527Z,-0.37
2023-01-13T21:57:37.743Z,-0.41
2023-01-13T22:01:26.953Z,-0.50
2023-01-13T22:05:16.128Z,-0.50
2023-01-13T22:09:05.243Z,-0.52
2023-01-13T22:12:54.482Z,-0.53
2023-01-13T22:16:43.603Z,-0.59
2023-01-13T22:20:32.719Z,-0.60
2023-01-13T22:24:21.948Z,-0.58
2023-01-13T22:28:11.238Z,-0.49
2023-01-13T22:32:00.397Z,-0.42
2023-01-13T22:35:49.580Z,-0.40
2023-01-13T22:39:38.645Z,-0.42
2023-01-13T22:43:27.665Z,-0.50
2023-01-13T22:47:16.783Z,-0.47
2023-01-13T22:51:05.971Z,-0.44
2023-01-13T22:54:55.072Z,-0.44
2023-01-13T22:58:44.242Z,-0.41
2023-01-13T23:02:33.333Z,-0.45
2023-01-13T23:06:22.412Z,-0.54
2023-01-13T23:10:11.458Z,-0.54
2023-01-13T23:14:00.594Z,-0.49
2023-01-13T23:17:49.696Z,-0.45
2023-01-13T23:21:44.556Z,-0.42
2023-01-13T23:25:33.633Z,-0.44
2023-01-13T23:29:22.772Z,-0.45
2023-01-13T23:33:11.820Z,-0.43
2023-01-13T23:37:00.948Z,-0.41
2023-01-13T23:40:50.213Z,-0.40
2023-01-13T23:44:39.287Z,-0.39
2023-01-13T23:48:28.515Z,-0.41
2023-01-13T23:52:17.549Z,-0.42
2023-01-13T23:56:06.691Z,-0.41
2023-01-13T23:59:48.388Z,-0.41
